Belleville, Illinois
Current Conditions -  °F | °C
As of 2:58 AM on Monday 22 Dec 2014 (Local Time) from KBLV Reporting Station
Overcast Overcast  
Wind Chill: 35°   Ceiling: 5500
Heat Index: 40°   Visibility: 10mi
Dew Point: 33°   Wind: 8mph
Humidity: 75%   Direction: 100°E
Pressure: 29.88"   Gusts: NA
Location:  38.51°N, 89.98°W
Report Text: KBLV 220858Z AUTO 10007KT 10SM OVC055 05/01 A2988 RMK AO2 SLP124 T00450005 57021 $
Loading
Personal Weather Stations






























Interactive Weather Map New forecast layout! Learn more

10-Day Weather Forecast

Advertisements
Track Severe Weather on mobile